Aérodrome :
LOGIN :

S'inscrire | Disclaimer

   EN    FR    IT 

 










Légende :    VFR   VFR Marginal   IFR   IFR Intensif   IFR Très Intensif
Visi : 
Plafond : 
>= 8 km
>= 3000ft
5 à 8 km
1000 à 3000 ft
1500m à 5 km
500 à 1000 ft
800 à 1500m
200 à 500 ft
< 800m
< 200 ft
Symboles :   Orages  Brouillard  Fortes neiges  Fortes précipitations  Vent > 20 kt
SIGMETs :   Divers  Orages  Givrage  Turbulence  Onde Orograph.  Cendres Volcan.







- Altitude de l'aérodrome : 1363 ft


ETIC - Grafenwohr Army Air Field

DERNIER METAR :
  • 261656Z AUTO 28006KT 9999 CLR 35/15 A3017 RMK AO2 SLP195 T03510149 $

METARs EXPIRÉS :
  • 261556Z AUTO 29009KT 9999 CLR 36/15 A3017 RMK AO2 SLP196 T03570149 $
  • 261456Z AUTO 24008KT 9999 CLR 36/14 A3019 RMK AO2 SLP203 T03560142 57010 $

TAF TAF ETIC
Valide du 26 à 14h jusqu'au 27 à 20h UTC


261407Z 2614/2720 VRB06KT 9999 SKC QNH3020INS
BECMG 2701/2702 VRB06KT 9999 FEW030 QNH3022INS
BECMG 2708/2709 35009KT 9999 SKC QNH3024INS TX36/2614Z TN21/2704Z
Pas de NOTAMs connus pour ce terrain.



MET'MAP, la Météo Aéronautique d'un coup d'oeil ! - Copyright ORBIFLY Décembre 2007 - Disclaimer

ORBIFLY MET'MAP TEAM :

Programmation & Développement : Alexandra Zaïnal
Conception & Développement : Baudouin d'Aumeries
Co-Programmation & Développement : Marc-Olivier Méhu
Soutien technique & logistique : Manuel Goepfert

Contact : metmap@orbifly.com




SOURCES & CREDITS :

   NOAA